createdAt,value
2023-03-31T00:02:13.887Z,8.91
2023-03-31T00:04:46.772Z,8.95
2023-03-31T00:07:16.477Z,9.01
2023-03-31T00:09:46.395Z,9.08
2023-03-31T00:12:17.572Z,9.15
2023-03-31T00:14:46.499Z,9.23
2023-03-31T00:17:15.712Z,9.28
2023-03-31T00:19:44.241Z,9.31
2023-03-31T00:22:12.618Z,9.34
2023-03-31T00:24:40.956Z,9.35
2023-03-31T00:27:09.575Z,9.38
2023-03-31T00:29:41.376Z,9.41
2023-03-31T00:32:09.828Z,9.42
2023-03-31T00:34:38.500Z,9.42
2023-03-31T00:37:10.084Z,9.41
2023-03-31T00:39:38.470Z,9.39
2023-03-31T00:42:13.103Z,9.37
2023-03-31T00:45:21.844Z,9.36
2023-03-31T00:48:01.152Z,9.34
2023-03-31T00:50:33.368Z,9.33
2023-03-31T00:53:13.324Z,9.32
2023-03-31T00:55:54.591Z,9.31
2023-03-31T00:58:28.374Z,9.31
2023-03-31T01:00:58.515Z,9.27
2023-03-31T01:03:27.138Z,9.24
2023-03-31T01:06:10.664Z,9.23
2023-03-31T01:08:39.305Z,9.24
2023-03-31T01:11:10.840Z,9.23
2023-03-31T01:13:40.666Z,9.25
2023-03-31T01:16:10.776Z,9.26
2023-03-31T01:18:40.145Z,9.27
2023-03-31T01:21:47.437Z,9.27
2023-03-31T01:24:47.536Z,9.29
2023-03-31T01:27:45.245Z,9.32
2023-03-31T01:30:35.506Z,9.33
2023-03-31T01:33:09.263Z,9.34
2023-03-31T01:36:02.721Z,9.34
2023-03-31T01:38:52.791Z,9.34
2023-03-31T01:41:37.046Z,9.36
2023-03-31T01:44:29.170Z,9.38
2023-03-31T01:47:06.166Z,9.41
2023-03-31T01:49:56.770Z,9.47
2023-03-31T01:52:28.172Z,9.52
2023-03-31T01:55:04.118Z,9.57
2023-03-31T01:58:01.792Z,9.61
2023-03-31T02:00:34.044Z,9.66
2023-03-31T02:03:17.157Z,9.71
2023-03-31T02:05:53.171Z,9.78
2023-03-31T02:08:41.678Z,9.84
2023-03-31T02:11:10.537Z,9.90
2023-03-31T02:13:41.658Z,9.92
2023-03-31T02:16:14.520Z,9.96
2023-03-31T02:18:44.693Z,10.00
2023-03-31T02:21:16.725Z,10.03
2023-03-31T02:23:46.127Z,10.07
2023-03-31T02:26:24.693Z,10.08
2023-03-31T02:28:53.182Z,10.11
2023-03-31T02:31:46.637Z,10.12
2023-03-31T02:34:15.333Z,10.15
2023-03-31T02:36:45.872Z,10.18
2023-03-31T02:39:19.501Z,10.19
2023-03-31T02:41:47.983Z,10.19
2023-03-31T02:44:17.264Z,10.18
2023-03-31T02:46:47.153Z,10.17
2023-03-31T02:49:16.311Z,10.16
2023-03-31T02:51:51.456Z,10.15
2023-03-31T02:54:44.182Z,10.14
2023-03-31T02:57:18.932Z,10.12
2023-03-31T03:00:09.466Z,10.09
2023-03-31T03:03:00.950Z,10.07
2023-03-31T03:05:51.147Z,10.04
2023-03-31T03:08:45.693Z,9.99
2023-03-31T03:11:27.690Z,9.95
2023-03-31T03:14:10.488Z,9.92
2023-03-31T03:16:46.389Z,9.87
2023-03-31T03:19:22.695Z,9.84
2023-03-31T03:21:51.096Z,9.82
2023-03-31T03:24:19.560Z,9.78
2023-03-31T03:26:48.282Z,9.73
2023-03-31T03:29:16.621Z,9.69
2023-03-31T03:31:45.006Z,9.63
2023-03-31T03:34:13.616Z,9.56
2023-03-31T03:36:41.975Z,9.51
2023-03-31T03:39:10.460Z,9.46
2023-03-31T03:41:39.077Z,9.40
2023-03-31T03:44:07.462Z,9.36
2023-03-31T03:46:35.918Z,9.32
2023-03-31T03:49:04.447Z,9.28
2023-03-31T03:51:35.969Z,9.26
2023-03-31T03:54:04.645Z,9.23
2023-03-31T03:56:33.048Z,9.21
2023-03-31T03:59:01.668Z,9.17
2023-03-31T04:01:30.199Z,9.13
2023-03-31T04:03:58.404Z,9.09
2023-03-31T04:06:28.161Z,9.05
2023-03-31T04:08:56.697Z,9.02
2023-03-31T04:11:25.058Z,9.00
2023-03-31T04:13:53.488Z,8.98
2023-03-31T04:16:25.635Z,8.96
2023-03-31T04:18:56.834Z,8.95
2023-03-31T04:21:25.564Z,8.94
2023-03-31T04:24:07.377Z,8.93
2023-03-31T04:26:44.859Z,8.90
2023-03-31T04:29:16.665Z,8.89
2023-03-31T04:31:45.277Z,8.89
2023-03-31T04:34:15.313Z,8.88
2023-03-31T04:36:47.975Z,8.87
2023-03-31T04:39:24.508Z,8.86
2023-03-31T04:41:53.881Z,8.87
2023-03-31T04:44:22.210Z,8.88
2023-03-31T04:46:50.686Z,8.88
2023-03-31T04:49:18.978Z,8.89
2023-03-31T04:51:47.436Z,8.90
2023-03-31T04:54:15.998Z,8.91
2023-03-31T04:56:44.797Z,8.92
2023-03-31T04:59:13.250Z,8.93
2023-03-31T05:01:45.229Z,8.96
2023-03-31T05:04:13.934Z,8.97
2023-03-31T05:06:42.275Z,8.99
2023-03-31T05:09:10.769Z,9.00
2023-03-31T05:11:39.190Z,9.02
2023-03-31T05:14:07.596Z,9.04
2023-03-31T05:16:36.141Z,9.06
2023-03-31T05:19:04.591Z,9.07
2023-03-31T05:21:32.926Z,9.09
2023-03-31T05:24:01.259Z,9.10
2023-03-31T05:26:29.506Z,9.11
2023-03-31T05:28:58.004Z,9.12
2023-03-31T05:31:27.448Z,9.13
2023-03-31T05:33:55.965Z,9.16
2023-03-31T05:36:24.195Z,9.18
2023-03-31T05:38:52.650Z,9.18
2023-03-31T05:41:21.370Z,9.19
2023-03-31T05:43:49.736Z,9.18
2023-03-31T05:46:18.693Z,9.17
2023-03-31T05:48:47.036Z,9.17
2023-03-31T05:51:15.434Z,9.17
2023-03-31T05:53:44.267Z,9.16
2023-03-31T05:56:12.702Z,9.16
2023-03-31T05:58:41.251Z,9.15
2023-03-31T06:01:17.679Z,9.15
2023-03-31T06:03:46.953Z,9.15
2023-03-31T06:06:16.590Z,9.17
2023-03-31T06:08:46.045Z,9.22
2023-03-31T06:11:22.510Z,9.25
2023-03-31T06:13:51.236Z,9.28
2023-03-31T06:16:19.870Z,9.30
2023-03-31T06:18:48.734Z,9.33
2023-03-31T06:21:18.658Z,9.36
2023-03-31T06:23:47.062Z,9.40
2023-03-31T06:26:18.091Z,9.45
2023-03-31T06:28:46.977Z,9.49
2023-03-31T06:31:17.736Z,9.53
2023-03-31T06:33:46.771Z,9.57
2023-03-31T06:36:18.062Z,9.61
2023-03-31T06:38:46.746Z,9.65
2023-03-31T06:41:16.495Z,9.72
2023-03-31T06:43:45.047Z,9.76
2023-03-31T06:46:13.753Z,9.83
2023-03-31T06:48:42.111Z,9.89
2023-03-31T06:51:11.190Z,9.94
2023-03-31T06:53:39.369Z,9.99
2023-03-31T06:56:08.334Z,10.03
2023-03-31T06:58:36.836Z,10.06
2023-03-31T07:01:06.574Z,10.10
2023-03-31T07:03:35.143Z,10.16
2023-03-31T07:06:03.816Z,10.19
2023-03-31T07:08:32.339Z,10.23
2023-03-31T07:11:01.188Z,10.29
2023-03-31T07:13:29.920Z,10.35
2023-03-31T07:15:58.653Z,10.42
2023-03-31T07:18:34.304Z,10.47
2023-03-31T07:21:07.152Z,10.54
2023-03-31T07:23:37.423Z,10.61
2023-03-31T07:26:06.566Z,10.67
2023-03-31T07:28:35.478Z,10.77
2023-03-31T07:31:04.058Z,10.84
2023-03-31T07:33:32.397Z,10.89
2023-03-31T07:36:11.849Z,10.96
2023-03-31T07:38:44.261Z,11.03
2023-03-31T07:41:17.597Z,11.11
2023-03-31T07:43:46.446Z,11.20
2023-03-31T07:46:26.046Z,11.27
2023-03-31T07:48:55.712Z,11.36
2023-03-31T07:51:26.000Z,11.43
2023-03-31T07:53:54.317Z,11.52
2023-03-31T07:56:24.778Z,11.64
2023-03-31T07:58:55.146Z,11.74
2023-03-31T08:01:26.484Z,11.83
2023-03-31T08:03:55.825Z,11.95
2023-03-31T08:06:25.640Z,12.11
2023-03-31T08:08:53.879Z,12.24
2023-03-31T08:11:22.030Z,12.36
2023-03-31T08:13:50.979Z,12.46
2023-03-31T08:16:19.600Z,12.50
2023-03-31T08:18:47.865Z,12.54
2023-03-31T08:21:16.357Z,12.61
2023-03-31T08:23:44.593Z,12.66
2023-03-31T08:26:17.872Z,12.71
2023-03-31T08:28:48.775Z,12.78
2023-03-31T08:31:18.932Z,12.83
2023-03-31T08:33:47.667Z,12.91
2023-03-31T08:36:17.204Z,13.02
2023-03-31T08:38:46.333Z,13.15
2023-03-31T08:41:44.097Z,13.22
2023-03-31T08:44:20.041Z,13.28
2023-03-31T08:46:49.396Z,13.34
2023-03-31T08:49:19.800Z,13.46
2023-03-31T08:51:51.490Z,13.58
2023-03-31T08:54:29.801Z,13.67
2023-03-31T08:56:58.129Z,13.77
2023-03-31T08:59:34.302Z,13.84
2023-03-31T09:02:41.837Z,13.92
2023-03-31T09:05:34.860Z,14.02
2023-03-31T09:08:29.132Z,14.12
2023-03-31T09:11:04.887Z,14.18
2023-03-31T09:13:36.050Z,14.13
2023-03-31T09:16:20.368Z,14.04
2023-03-31T09:18:49.308Z,13.97
2023-03-31T09:21:26.060Z,13.95
2023-03-31T09:24:19.877Z,14.00
2023-03-31T09:27:07.801Z,14.02
2023-03-31T09:29:42.234Z,14.12
2023-03-31T09:32:30.564Z,14.16
2023-03-31T09:35:17.212Z,14.21
2023-03-31T09:37:45.339Z,14.28
2023-03-31T09:40:21.950Z,14.36
2023-03-31T09:43:22.512Z,14.42
2023-03-31T09:46:07.505Z,14.46
2023-03-31T09:48:38.048Z,14.55
2023-03-31T09:51:08.381Z,14.57
2023-03-31T09:54:07.305Z,14.56
2023-03-31T09:56:48.945Z,14.54
2023-03-31T09:59:22.748Z,14.54
2023-03-31T10:01:53.350Z,14.53
2023-03-31T10:04:26.576Z,14.54
2023-03-31T10:06:56.019Z,14.48
2023-03-31T10:09:30.344Z,14.50
2023-03-31T10:12:03.044Z,14.49
2023-03-31T10:14:53.432Z,14.50
2023-03-31T10:17:24.337Z,14.56
2023-03-31T10:20:00.288Z,14.58
2023-03-31T10:22:31.174Z,14.60
2023-03-31T10:25:18.313Z,14.62
2023-03-31T10:27:49.219Z,14.69
2023-03-31T10:30:25.887Z,14.81
2023-03-31T10:32:54.911Z,14.93
2023-03-31T10:35:35.691Z,14.99
2023-03-31T10:38:07.091Z,14.97
2023-03-31T10:40:36.544Z,14.95
2023-03-31T10:43:09.706Z,14.98
2023-03-31T10:45:43.440Z,14.99
2023-03-31T10:48:29.897Z,15.03
2023-03-31T10:51:04.896Z,15.11
2023-03-31T10:53:44.481Z,15.26
2023-03-31T10:56:37.445Z,15.62
2023-03-31T10:59:19.976Z,15.94
2023-03-31T11:02:09.968Z,15.95
2023-03-31T11:04:38.266Z,15.92
2023-03-31T11:07:09.397Z,15.89
2023-03-31T11:09:50.197Z,15.87
2023-03-31T11:12:34.474Z,15.96
2023-03-31T11:15:22.564Z,16.11
2023-03-31T11:18:21.072Z,16.22
2023-03-31T11:21:20.579Z,16.44
2023-03-31T11:24:22.050Z,16.64
2023-03-31T11:26:56.218Z,16.64
2023-03-31T11:29:59.848Z,16.66
2023-03-31T11:32:33.664Z,16.54
2023-03-31T11:35:16.200Z,16.31
2023-03-31T11:38:11.798Z,16.14
2023-03-31T11:40:59.438Z,15.94
2023-03-31T11:43:33.609Z,15.65
2023-03-31T11:46:15.764Z,15.38
2023-03-31T11:48:53.354Z,15.07
2023-03-31T11:51:26.693Z,14.53
2023-03-31T11:53:59.652Z,14.11
2023-03-31T11:56:35.943Z,13.80
2023-03-31T11:59:04.593Z,13.52
2023-03-31T12:01:41.014Z,13.04
2023-03-31T12:04:33.887Z,12.54
2023-03-31T12:07:19.626Z,12.04
2023-03-31T12:10:24.060Z,11.69
2023-03-31T12:13:03.505Z,11.51
2023-03-31T12:15:34.962Z,11.40
2023-03-31T12:18:15.063Z,11.38
2023-03-31T12:20:51.228Z,11.48
2023-03-31T12:23:23.360Z,11.76
2023-03-31T12:25:56.501Z,12.03
2023-03-31T12:28:25.503Z,12.24
2023-03-31T12:30:55.044Z,12.42
2023-03-31T12:33:31.563Z,12.55
2023-03-31T12:36:09.400Z,12.73
2023-03-31T12:39:05.694Z,12.88
2023-03-31T12:42:02.056Z,13.09
2023-03-31T12:44:48.364Z,13.24
2023-03-31T12:47:43.569Z,13.27
2023-03-31T12:50:33.409Z,13.21
2023-03-31T12:53:21.874Z,13.23
2023-03-31T12:55:52.209Z,13.08
2023-03-31T12:58:35.903Z,13.01
2023-03-31T13:01:11.792Z,12.95
2023-03-31T13:03:52.453Z,12.90
2023-03-31T13:06:29.741Z,12.90
2023-03-31T13:09:04.359Z,12.89
2023-03-31T13:11:38.672Z,12.86
2023-03-31T13:14:22.729Z,12.77
2023-03-31T13:16:55.586Z,12.74
2023-03-31T13:19:34.870Z,12.77
2023-03-31T13:22:05.088Z,12.77
2023-03-31T13:24:34.823Z,12.74
2023-03-31T13:27:34.435Z,12.67
2023-03-31T13:30:02.687Z,12.60
2023-03-31T13:32:30.995Z,12.49
2023-03-31T13:35:03.799Z,12.46
2023-03-31T13:38:03.320Z,12.50
2023-03-31T13:40:41.489Z,12.56
2023-03-31T13:43:38.750Z,12.57
2023-03-31T13:46:20.171Z,12.58
2023-03-31T13:49:17.408Z,12.46
2023-03-31T13:52:03.468Z,12.36
2023-03-31T13:54:57.013Z,12.28
2023-03-31T13:57:40.703Z,12.31
2023-03-31T14:00:18.681Z,12.36
2023-03-31T14:03:02.364Z,12.36
2023-03-31T14:05:44.860Z,12.36
2023-03-31T14:08:58.263Z,12.33
2023-03-31T14:11:31.497Z,12.28
2023-03-31T14:14:19.984Z,12.26
2023-03-31T14:17:06.395Z,12.21
2023-03-31T14:19:49.543Z,12.17
2023-03-31T14:22:32.192Z,12.13
2023-03-31T14:25:38.336Z,12.06
2023-03-31T14:28:52.582Z,12.00
2023-03-31T14:32:09.476Z,11.97
2023-03-31T14:35:04.208Z,11.98
2023-03-31T14:37:32.608Z,11.97
2023-03-31T14:40:02.280Z,11.91
2023-03-31T14:42:39.809Z,11.85
2023-03-31T14:45:31.696Z,11.78
2023-03-31T14:48:15.303Z,11.72
2023-03-31T14:50:45.701Z,11.67
2023-03-31T14:53:18.177Z,11.63
2023-03-31T14:55:58.020Z,11.60
2023-03-31T14:58:30.784Z,11.63
2023-03-31T15:00:59.516Z,11.62
2023-03-31T15:03:31.958Z,11.59
2023-03-31T15:06:01.430Z,11.56
2023-03-31T15:08:30.652Z,11.57
2023-03-31T15:11:11.737Z,11.59
2023-03-31T15:16:30.557Z,11.54
2023-03-31T15:19:01.032Z,11.53
2023-03-31T15:21:31.260Z,11.56
2023-03-31T15:23:59.520Z,11.58
2023-03-31T15:26:59.753Z,11.60
2023-03-31T15:29:50.437Z,11.59
2023-03-31T15:32:21.879Z,11.59
2023-03-31T15:34:51.424Z,11.56
2023-03-31T15:37:28.657Z,11.51
2023-03-31T15:40:01.206Z,11.46
2023-03-31T15:42:29.567Z,11.41
2023-03-31T15:45:20.969Z,11.36
2023-03-31T15:47:55.339Z,11.34
2023-03-31T15:50:29.135Z,11.32
2023-03-31T15:53:04.167Z,11.30
2023-03-31T15:55:52.233Z,11.19
2023-03-31T15:59:06.123Z,11.10
2023-03-31T16:01:54.823Z,11.04
2023-03-31T16:04:43.673Z,10.99
2023-03-31T16:07:51.069Z,10.96
2023-03-31T16:10:37.640Z,10.92
2023-03-31T16:13:12.372Z,10.89
2023-03-31T16:15:44.307Z,10.87
2023-03-31T16:18:15.985Z,10.83
2023-03-31T16:21:00.055Z,10.79
2023-03-31T16:23:31.851Z,10.77
2023-03-31T16:26:00.877Z,10.75
2023-03-31T16:28:38.671Z,10.75
2023-03-31T16:31:28.017Z,10.73
2023-03-31T16:33:57.628Z,10.68
2023-03-31T16:36:26.136Z,10.67
2023-03-31T16:38:55.213Z,10.67
2023-03-31T16:41:23.656Z,10.64
2023-03-31T16:43:53.004Z,10.62
2023-03-31T16:46:24.574Z,10.59
2023-03-31T16:48:56.211Z,10.59
2023-03-31T16:51:26.665Z,10.55
2023-03-31T16:53:57.549Z,10.55
2023-03-31T16:56:27.333Z,10.55
2023-03-31T16:58:56.419Z,10.52
2023-03-31T17:01:24.859Z,10.52
2023-03-31T17:04:09.480Z,10.51
2023-03-31T17:06:37.816Z,10.48
2023-03-31T17:09:06.693Z,10.48
2023-03-31T17:11:35.115Z,10.47
2023-03-31T17:14:05.430Z,10.44
2023-03-31T17:16:48.099Z,10.41
2023-03-31T17:19:17.469Z,10.40
2023-03-31T17:21:46.124Z,10.38
2023-03-31T17:24:14.672Z,10.34
2023-03-31T17:26:42.975Z,10.32
2023-03-31T17:29:12.511Z,10.29
2023-03-31T17:31:41.775Z,10.27
2023-03-31T17:34:13.447Z,10.25
2023-03-31T17:36:44.314Z,10.23
2023-03-31T17:39:12.867Z,10.21
2023-03-31T17:41:41.936Z,10.16
2023-03-31T17:44:12.332Z,10.15
2023-03-31T17:46:41.175Z,10.15
2023-03-31T17:49:09.629Z,10.14
2023-03-31T17:51:38.205Z,10.14
2023-03-31T17:54:07.043Z,10.13
2023-03-31T17:56:38.681Z,10.14
2023-03-31T17:59:07.200Z,10.16
2023-03-31T18:01:38.170Z,10.17
2023-03-31T18:04:07.050Z,10.16
2023-03-31T18:06:39.078Z,10.15
2023-03-31T18:09:08.792Z,10.12
2023-03-31T18:11:40.808Z,10.10
2023-03-31T18:14:09.515Z,10.08
2023-03-31T18:16:38.287Z,10.09
2023-03-31T18:19:07.406Z,10.09
2023-03-31T18:21:37.078Z,10.09
2023-03-31T18:24:05.612Z,10.10
2023-03-31T18:26:34.179Z,10.07
2023-03-31T18:29:10.196Z,10.07
2023-03-31T18:32:00.430Z,10.04
2023-03-31T18:34:33.303Z,9.98
2023-03-31T18:37:02.637Z,9.96
2023-03-31T18:39:31.640Z,9.93
2023-03-31T18:42:00.396Z,9.89
2023-03-31T18:44:39.674Z,9.85
2023-03-31T18:47:14.371Z,9.81
2023-03-31T18:49:53.438Z,9.79
2023-03-31T18:52:25.211Z,9.78
2023-03-31T18:54:58.623Z,9.76
2023-03-31T18:57:33.384Z,9.73
2023-03-31T19:00:05.651Z,9.70
2023-03-31T19:02:47.502Z,9.66
2023-03-31T19:05:19.282Z,9.66
2023-03-31T19:07:53.483Z,9.61
2023-03-31T19:10:22.291Z,9.54
2023-03-31T19:12:59.564Z,9.50
2023-03-31T19:15:37.111Z,9.46
2023-03-31T19:18:14.383Z,9.41
2023-03-31T19:20:43.283Z,9.35
2023-03-31T19:23:12.143Z,9.31
2023-03-31T19:25:44.671Z,9.29
2023-03-31T19:28:16.935Z,9.23
2023-03-31T19:30:47.709Z,9.16
2023-03-31T19:33:16.684Z,9.11
2023-03-31T19:35:51.503Z,9.11
2023-03-31T19:38:32.267Z,9.12
2023-03-31T19:41:04.285Z,9.11
2023-03-31T19:43:35.910Z,9.09
2023-03-31T19:46:07.253Z,9.09
2023-03-31T19:48:36.327Z,9.09
2023-03-31T19:51:06.014Z,9.08
2023-03-31T19:53:42.053Z,9.06
2023-03-31T19:56:16.016Z,9.03
2023-03-31T19:58:50.673Z,9.00
2023-03-31T20:01:28.510Z,9.01
2023-03-31T20:03:57.327Z,9.02
2023-03-31T20:06:30.170Z,9.02
2023-03-31T20:09:11.896Z,9.02
2023-03-31T20:11:43.548Z,9.04
2023-03-31T20:14:12.949Z,9.06
2023-03-31T20:16:44.916Z,9.07
2023-03-31T20:19:16.745Z,9.09
2023-03-31T20:21:48.202Z,9.09
2023-03-31T20:24:20.913Z,9.11
2023-03-31T20:26:49.764Z,9.14
2023-03-31T20:29:18.395Z,9.15
2023-03-31T20:31:47.257Z,9.18
2023-03-31T20:34:17.863Z,9.21
2023-03-31T20:36:52.010Z,9.23
2023-03-31T20:39:23.920Z,9.25
2023-03-31T20:41:59.737Z,9.25
2023-03-31T20:44:28.005Z,9.25
2023-03-31T20:46:59.136Z,9.26
2023-03-31T20:49:30.572Z,9.26
2023-03-31T20:52:01.403Z,9.26
2023-03-31T20:54:32.454Z,9.26
2023-03-31T20:57:01.756Z,9.27
2023-03-31T20:59:30.324Z,9.26
2023-03-31T21:02:04.495Z,9.27
2023-03-31T21:04:33.315Z,9.27
2023-03-31T21:07:04.447Z,9.27
2023-03-31T21:09:33.179Z,9.27
2023-03-31T21:12:02.797Z,9.25
2023-03-31T21:14:31.925Z,9.24
2023-03-31T21:17:00.572Z,9.22
2023-03-31T21:19:32.287Z,9.22
2023-03-31T21:22:03.164Z,9.19
2023-03-31T21:24:31.906Z,9.15
2023-03-31T21:27:00.417Z,9.11
2023-03-31T21:29:29.510Z,9.08
2023-03-31T21:32:09.250Z,9.04
2023-03-31T21:34:43.651Z,9.02
2023-03-31T21:37:12.330Z,9.00
2023-03-31T21:39:43.233Z,8.97
2023-03-31T21:42:11.958Z,8.94
2023-03-31T21:44:43.769Z,8.91
2023-03-31T21:47:22.955Z,8.87
2023-03-31T21:49:52.132Z,8.82
2023-03-31T21:52:32.373Z,8.77
2023-03-31T21:55:04.804Z,8.71
2023-03-31T21:57:36.347Z,8.67
2023-03-31T22:00:31.448Z,8.61
2023-03-31T22:03:26.561Z,8.55
2023-03-31T22:05:59.957Z,8.47
2023-03-31T22:08:37.158Z,8.41
2023-03-31T22:11:12.877Z,8.33
2023-03-31T22:13:49.518Z,8.29
2023-03-31T22:16:25.844Z,8.23
2023-03-31T22:19:12.797Z,8.19
2023-03-31T22:21:58.613Z,8.15
2023-03-31T22:24:35.616Z,8.13
2023-03-31T22:27:13.143Z,8.11
2023-03-31T22:29:51.135Z,8.10
2023-03-31T22:32:28.225Z,8.10
2023-03-31T22:35:17.288Z,8.09
2023-03-31T22:37:53.990Z,8.07
2023-03-31T22:40:39.971Z,8.06
2023-03-31T22:43:18.900Z,8.05
2023-03-31T22:46:12.488Z,8.03
2023-03-31T22:48:57.445Z,8.02
2023-03-31T22:51:40.183Z,8.01
2023-03-31T22:54:18.873Z,8.01
2023-03-31T22:56:56.649Z,8.02
2023-03-31T22:59:37.190Z,8.03
2023-03-31T23:02:08.998Z,8.03
2023-03-31T23:04:42.722Z,8.05
2023-03-31T23:07:22.815Z,8.06
2023-03-31T23:10:01.932Z,8.06
2023-03-31T23:12:35.695Z,8.06
2023-03-31T23:15:21.647Z,8.06
2023-03-31T23:18:01.449Z,8.06
2023-03-31T23:20:33.093Z,8.05
2023-03-31T23:23:33.971Z,8.06
2023-03-31T23:26:02.878Z,8.04
2023-03-31T23:28:38.656Z,8.02
2023-03-31T23:31:07.387Z,8.00
2023-03-31T23:33:45.050Z,7.99
2023-03-31T23:36:21.409Z,7.98
2023-03-31T23:38:54.937Z,7.95
2023-03-31T23:41:26.838Z,7.92
2023-03-31T23:44:01.841Z,7.91
2023-03-31T23:46:33.732Z,7.89
2023-03-31T23:49:04.936Z,7.88
2023-03-31T23:51:33.648Z,7.86
2023-03-31T23:54:07.901Z,7.83
2023-03-31T23:56:38.919Z,7.80
2023-03-31T23:59:09.877Z,7.79
